Time;durP1;ratioP1;P1;durP2;ratioP2;P2;SDS_P1;SDS_P2;PMS_P1;PMS_P2;Temp;Humidity;BMP_temperature;BMP_pressure;BME280_temperature;BME280_humidity;BME280_pressure;Samples;Min_cycle;Max_cycle;Signal;HPM_P1;HPM_P2
2022/01/01 00:00:33;;;;;;;21.33;14.43;;;14.40;99.90;;;;;;5035654;28;20232;-70
2022/01/01 00:03:00;;;;;;;22.77;13.70;;;14.50;99.90;;;;;;5035902;28;20704;-72
2022/01/01 00:05:26;;;;;;;16.50;11.60;;;14.40;99.90;;;;;;5036328;28;20291;-71
2022/01/01 00:07:52;;;;;;;17.60;11.03;;;14.50;99.90;;;;;;5035734;28;20221;-71
2022/01/01 00:10:19;;;;;;;20.23;10.87;;;14.50;99.90;;;;;;5036052;28;20184;-71
2022/01/01 00:12:46;;;;;;;21.07;11.30;;;14.40;99.90;;;;;;5035832;28;20182;-72
2022/01/01 00:15:13;;;;;;;19.20;12.13;;;14.40;99.90;;;;;;5035575;28;20186;-71
2022/01/01 00:17:39;;;;;;;16.60;11.67;;;14.50;99.90;;;;;;5035779;28;20216;-71
2022/01/01 00:20:06;;;;;;;20.03;11.57;;;14.50;99.90;;;;;;5036023;28;20202;-71
2022/01/01 00:22:31;;;;;;;20.67;11.27;;;14.50;99.90;;;;;;5035655;28;20178;-71
2022/01/01 00:24:57;;;;;;;16.07;10.97;;;14.40;99.90;;;;;;5035488;28;20232;-71
2022/01/01 00:27:22;;;;;;;17.40;10.37;;;14.40;99.90;;;;;;5035668;28;20630;-71
2022/01/01 00:29:48;;;;;;;15.83;10.33;;;14.50;99.90;;;;;;5035599;28;20193;-71
2022/01/01 00:32:13;;;;;;;16.70;9.47;;;14.40;99.90;;;;;;5034222;28;20509;-71
2022/01/01 00:34:39;;;;;;;18.73;9.47;;;14.40;99.90;;;;;;5035396;28;20228;-71
2022/01/01 00:37:05;;;;;;;14.43;8.47;;;14.30;99.90;;;;;;5035786;28;20178;-71
2022/01/01 00:39:31;;;;;;;14.77;8.47;;;14.30;99.90;;;;;;5035477;28;20535;-71
2022/01/01 00:41:56;;;;;;;16.17;9.23;;;14.30;99.90;;;;;;5035298;28;20180;-70
2022/01/01 00:44:22;;;;;;;17.27;9.70;;;14.30;99.90;;;;;;5035107;28;20205;-70
2022/01/01 00:46:47;;;;;;;15.20;8.47;;;14.40;99.90;;;;;;5034924;28;20710;-71
2022/01/01 00:49:13;;;;;;;15.60;8.20;;;14.50;99.90;;;;;;5035444;28;20205;-71
2022/01/01 00:51:39;;;;;;;13.93;8.10;;;14.40;99.90;;;;;;5035159;28;20535;-71
2022/01/01 00:54:04;;;;;;;14.27;8.20;;;14.40;99.90;;;;;;5035072;28;20212;-71
2022/01/01 00:56:30;;;;;;;17.07;8.00;;;14.40;99.90;;;;;;5035057;28;20178;-71
2022/01/01 00:58:56;;;;;;;12.13;8.10;;;14.40;99.90;;;;;;5034905;28;20185;-71
2022/01/01 01:01:22;;;;;;;15.10;8.33;;;14.30;99.90;;;;;;5034608;28;20185;-72
2022/01/01 01:03:47;;;;;;;13.70;8.60;;;14.20;99.90;;;;;;5035275;28;20170;-70
2022/01/01 01:06:14;;;;;;;20.30;9.87;;;14.30;99.90;;;;;;5035090;28;20178;-71
2022/01/01 01:08:40;;;;;;;18.03;9.60;;;14.20;99.90;;;;;;5034752;28;20202;-71
2022/01/01 01:11:08;;;;;;;15.53;8.77;;;14.10;99.90;;;;;;5034852;28;20170;-71
2022/01/01 01:13:35;;;;;;;13.90;9.37;;;14.00;99.90;;;;;;5034523;28;20633;-71
2022/01/01 01:16:06;;;;;;;18.40;9.93;;;14.00;99.90;;;;;;5034577;28;20186;-71
2022/01/01 01:18:32;;;;;;;18.30;9.40;;;14.10;99.90;;;;;;5034582;28;20182;-71
2022/01/01 01:20:58;;;;;;;16.90;10.00;;;14.20;99.90;;;;;;5034750;28;20200;-71
2022/01/01 01:23:23;;;;;;;16.17;9.40;;;14.20;99.90;;;;;;5033304;28;20229;-71
2022/01/01 01:25:49;;;;;;;16.37;9.23;;;14.20;99.90;;;;;;5034432;28;20232;-71
2022/01/01 01:28:14;;;;;;;17.43;10.03;;;14.20;99.90;;;;;;5032547;28;20209;-71
2022/01/01 01:30:41;;;;;;;14.53;9.23;;;14.20;99.90;;;;;;5033619;28;20174;-71
2022/01/01 01:33:08;;;;;;;16.60;9.90;;;14.10;99.90;;;;;;5034703;28;20185;-70
2022/01/01 01:35:35;;;;;;;17.23;9.77;;;14.20;99.90;;;;;;5034475;28;20695;-70
2022/01/01 01:38:01;;;;;;;17.30;9.93;;;14.30;99.90;;;;;;5034697;28;20185;-71
2022/01/01 01:40:27;;;;;;;20.47;12.70;;;14.30;99.90;;;;;;5034318;28;20180;-71
2022/01/01 01:42:52;;;;;;;15.47;9.87;;;14.30;99.90;;;;;;5034081;28;20584;-71
2022/01/01 01:45:21;;;;;;;16.73;9.50;;;14.30;99.90;;;;;;5033826;28;20578;-71
2022/01/01 01:47:49;;;;;;;18.63;10.23;;;14.30;99.90;;;;;;5034213;28;20263;-72
2022/01/01 01:50:17;;;;;;;20.33;10.10;;;14.30;99.90;;;;;;5033047;28;20174;-71
2022/01/01 01:52:48;;;;;;;14.53;9.50;;;14.30;99.90;;;;;;5034087;28;20182;-71
2022/01/01 01:55:14;;;;;;;17.37;10.70;;;14.30;99.90;;;;;;5033736;28;20204;-71
2022/01/01 01:57:41;;;;;;;18.47;9.80;;;14.20;99.90;;;;;;5033980;28;20181;-71
2022/01/01 02:00:51;;;;;;;15.53;9.83;;;14.30;99.90;;;;;;5034262;28;20185;-71
2022/01/01 02:02:56;;;;;;;17.73;10.37;;;14.20;99.90;;;;;;5033998;28;20185;-71
2022/01/01 02:05:21;;;;;;;14.87;9.43;;;14.10;99.90;;;;;;5033855;28;20619;-71
2022/01/01 02:07:49;;;;;;;15.17;9.20;;;14.20;99.90;;;;;;5033822;28;20248;-71
2022/01/01 02:10:14;;;;;;;12.00;8.10;;;14.20;99.90;;;;;;5033994;28;20189;-71
2022/01/01 02:12:41;;;;;;;19.83;9.60;;;14.20;99.90;;;;;;5033472;28;20273;-72
2022/01/01 02:15:26;;;;;;;15.30;9.20;;;14.10;99.90;;;;;;5033898;28;20223;-71
2022/01/01 02:17:54;;;;;;;14.37;8.03;;;14.20;99.90;;;;;;5033917;28;20227;-72
2022/01/01 02:20:21;;;;;;;15.47;8.03;;;14.10;99.90;;;;;;5033643;28;20626;-71
2022/01/01 02:22:48;;;;;;;14.40;7.50;;;14.10;99.90;;;;;;5033642;28;20633;-70
2022/01/01 02:25:15;;;;;;;11.73;6.73;;;14.10;99.90;;;;;;5033278;28;20210;-71
2022/01/01 02:27:41;;;;;;;11.17;6.13;;;14.10;99.90;;;;;;5033071;28;20201;-71
2022/01/01 02:30:10;;;;;;;13.67;6.87;;;14.10;99.90;;;;;;5033644;28;20177;-70
2022/01/01 02:32:36;;;;;;;19.33;6.93;;;14.10;99.90;;;;;;5032190;28;20178;-70
2022/01/01 02:35:03;;;;;;;14.17;7.30;;;14.10;99.90;;;;;;5032419;28;20188;-70
2022/01/01 02:37:31;;;;;;;11.70;6.27;;;14.10;99.90;;;;;;5033291;28;20181;-71
2022/01/01 02:39:57;;;;;;;10.83;6.17;;;14.10;99.90;;;;;;5033322;28;20196;-70
2022/01/01 02:42:23;;;;;;;11.77;6.27;;;14.10;99.90;;;;;;5033093;28;20178;-71
2022/01/01 02:44:50;;;;;;;15.90;7.80;;;14.10;99.90;;;;;;5033279;28;20184;-70
2022/01/01 02:47:16;;;;;;;11.63;5.87;;;14.10;99.90;;;;;;5032950;28;20614;-71
2022/01/01 02:49:42;;;;;;;16.70;8.57;;;14.00;99.90;;;;;;5033181;28;20249;-72
2022/01/01 02:52:07;;;;;;;20.90;13.13;;;13.90;99.90;;;;;;5033297;28;20198;-70
2022/01/01 02:54:33;;;;;;;11.77;6.23;;;13.80;99.90;;;;;;5032773;28;20617;-71
2022/01/01 02:56:59;;;;;;;13.30;6.27;;;13.80;99.90;;;;;;5032208;28;20185;-70
2022/01/01 02:59:24;;;;;;;11.87;6.20;;;13.70;99.90;;;;;;5033220;28;20570;-71
2022/01/01 03:01:50;;;;;;;12.70;5.93;;;13.70;99.90;;;;;;5033061;28;20174;-70
2022/01/01 03:04:16;;;;;;;13.43;8.93;;;13.60;99.90;;;;;;5033164;28;20212;-70
2022/01/01 03:06:42;;;;;;;13.67;6.40;;;13.60;99.90;;;;;;5032931;28;20196;-70
2022/01/01 03:09:07;;;;;;;9.07;6.23;;;13.60;99.90;;;;;;5032959;28;20225;-71
2022/01/01 03:11:33;;;;;;;11.30;6.60;;;13.50;99.90;;;;;;5032766;28;20174;-71
2022/01/01 03:13:59;;;;;;;12.90;7.17;;;13.60;99.90;;;;;;5033014;28;20600;-71
2022/01/01 03:16:24;;;;;;;13.10;6.87;;;13.50;99.90;;;;;;5032665;28;20170;-72
2022/01/01 03:18:50;;;;;;;11.10;6.43;;;13.50;99.90;;;;;;5032935;28;20217;-72
2022/01/01 03:21:16;;;;;;;11.53;6.43;;;13.40;99.90;;;;;;5032751;28;20307;-71
2022/01/01 03:23:41;;;;;;;11.97;6.83;;;13.50;99.90;;;;;;5032570;28;20272;-71
2022/01/01 03:26:07;;;;;;;14.50;7.50;;;13.40;99.90;;;;;;5032657;28;20592;-70
2022/01/01 03:28:32;;;;;;;11.90;6.40;;;13.40;99.90;;;;;;5031516;28;20220;-70
2022/01/01 03:30:58;;;;;;;12.33;6.83;;;13.50;99.90;;;;;;5032877;28;20173;-70
2022/01/01 03:33:24;;;;;;;20.50;12.37;;;13.60;99.90;;;;;;5031619;28;20634;-70
2022/01/01 03:35:50;;;;;;;15.60;8.40;;;13.60;99.90;;;;;;5032617;28;20212;-71
2022/01/01 03:38:17;;;;;;;17.63;11.13;;;13.50;99.90;;;;;;5032529;28;20185;-70
2022/01/01 03:40:43;;;;;;;12.97;8.60;;;13.60;99.90;;;;;;5032639;28;20174;-70
2022/01/01 03:43:09;;;;;;;12.57;7.20;;;13.60;99.90;;;;;;5032991;28;20169;-69
2022/01/01 03:45:36;;;;;;;15.73;8.07;;;13.50;99.90;;;;;;5032416;28;20679;-69
2022/01/01 03:48:04;;;;;;;14.83;8.30;;;13.50;99.90;;;;;;5032520;28;20249;-70
2022/01/01 03:50:29;;;;;;;18.43;11.30;;;13.50;99.90;;;;;;5032514;28;20182;-70
2022/01/01 03:52:55;;;;;;;17.80;10.03;;;13.50;99.90;;;;;;5031247;28;20239;-70
2022/01/01 03:55:20;;;;;;;12.90;7.53;;;13.50;99.90;;;;;;5030726;28;20201;-70
2022/01/01 03:57:46;;;;;;;11.50;7.40;;;13.40;99.90;;;;;;5032660;28;20170;-70
2022/01/01 04:00:12;;;;;;;14.50;11.13;;;13.30;99.90;;;;;;5032606;28;20631;-70
2022/01/01 04:02:38;;;;;;;12.13;7.50;;;13.30;99.90;;;;;;5032650;28;20205;-70
2022/01/01 04:05:04;;;;;;;13.23;6.70;;;13.20;99.90;;;;;;5032397;28;20288;-70
2022/01/01 04:07:31;;;;;;;13.37;7.63;;;13.20;99.90;;;;;;5032364;28;20296;-70
2022/01/01 04:09:57;;;;;;;14.90;7.23;;;13.10;99.90;;;;;;5034960;28;20267;-70
2022/01/01 04:12:23;;;;;;;15.33;6.60;;;13.00;99.90;;;;;;5036282;28;20170;-70
2022/01/01 04:14:49;;;;;;;10.97;7.23;;;13.00;99.90;;;;;;5035776;28;20256;-69
2022/01/01 04:17:14;;;;;;;14.67;7.60;;;13.00;99.90;;;;;;5036093;28;20630;-70
2022/01/01 04:19:40;;;;;;;14.40;7.13;;;13.00;99.90;;;;;;5035530;28;20174;-70
2022/01/01 04:22:07;;;;;;;14.30;6.97;;;13.00;99.90;;;;;;5035507;28;20272;-70
2022/01/01 04:24:33;;;;;;;11.10;7.07;;;13.00;99.90;;;;;;5035567;28;20363;-70
2022/01/01 04:26:59;;;;;;;18.07;7.17;;;13.10;99.90;;;;;;5035864;28;20293;-70
2022/01/01 04:29:24;;;;;;;12.73;7.47;;;13.00;99.90;;;;;;5035747;28;20176;-70
2022/01/01 04:31:50;;;;;;;11.40;7.30;;;13.00;99.90;;;;;;5035540;28;20162;-71
2022/01/01 04:34:16;;;;;;;12.63;7.07;;;13.00;99.90;;;;;;5035634;28;20162;-70
2022/01/01 04:36:49;;;;;;;14.07;7.00;;;13.00;99.90;;;;;;5035369;28;20170;-70
2022/01/01 04:39:14;;;;;;;11.07;6.43;;;12.90;99.90;;;;;;5035711;28;20269;-70
2022/01/01 04:41:41;;;;;;;12.43;6.73;;;12.90;99.90;;;;;;5035431;28;20197;-70
2022/01/01 04:44:09;;;;;;;12.83;6.70;;;12.90;99.90;;;;;;5035187;28;20628;-70
2022/01/01 04:46:35;;;;;;;13.60;6.83;;;12.90;99.90;;;;;;5035632;28;20170;-70
2022/01/01 04:49:01;;;;;;;10.83;6.10;;;12.80;99.90;;;;;;5034027;28;20629;-70
2022/01/01 04:51:26;;;;;;;10.93;6.60;;;12.80;99.90;;;;;;5034918;28;20178;-70
2022/01/01 04:53:58;;;;;;;11.67;6.53;;;12.80;99.90;;;;;;5035377;28;20181;-70
2022/01/01 04:56:24;;;;;;;11.83;6.77;;;12.80;99.90;;;;;;5035000;28;20618;-70
2022/01/01 04:58:50;;;;;;;15.80;7.23;;;12.80;99.90;;;;;;5035313;28;20174;-70
2022/01/01 05:01:15;;;;;;;13.93;7.07;;;12.80;99.90;;;;;;5035121;28;20701;-70
2022/01/01 05:03:45;;;;;;;13.43;6.63;;;12.70;99.90;;;;;;5034830;28;20261;-69
2022/01/01 05:06:10;;;;;;;11.60;6.50;;;12.80;99.90;;;;;;5034708;28;20174;-70
2022/01/01 05:08:36;;;;;;;10.10;6.37;;;12.80;99.90;;;;;;5034909;28;20224;-70
2022/01/01 05:11:02;;;;;;;13.43;6.67;;;12.80;99.90;;;;;;5034613;28;20168;-70
2022/01/01 05:13:27;;;;;;;11.73;6.57;;;12.90;99.90;;;;;;5034970;28;20202;-70
2022/01/01 05:15:55;;;;;;;12.37;6.67;;;12.90;99.90;;;;;;5034754;28;20185;-70
2022/01/01 05:18:21;;;;;;;9.23;5.83;;;12.90;99.90;;;;;;5034637;28;20170;-70
2022/01/01 05:20:47;;;;;;;14.77;7.10;;;12.90;99.90;;;;;;5033312;28;20169;-70
2022/01/01 05:23:13;;;;;;;13.33;6.77;;;12.90;99.90;;;;;;5034409;28;20185;-70
2022/01/01 05:25:38;;;;;;;12.03;6.37;;;13.00;99.90;;;;;;5034564;28;20178;-70
2022/01/01 05:28:04;;;;;;;11.23;6.30;;;13.00;99.90;;;;;;5034569;28;20209;-69
2022/01/01 05:30:30;;;;;;;14.13;6.63;;;13.00;99.90;;;;;;5034702;28;20175;-69
2022/01/01 05:32:58;;;;;;;13.93;6.63;;;13.10;99.90;;;;;;5034460;28;20181;-69
2022/01/01 05:35:24;;;;;;;10.43;6.37;;;13.20;99.90;;;;;;5034114;28;20181;-70
2022/01/01 05:37:49;;;;;;;13.53;6.30;;;13.20;99.90;;;;;;5034473;28;20181;-70
2022/01/01 05:40:16;;;;;;;16.43;6.80;;;13.20;99.90;;;;;;5034346;28;20169;-69
2022/01/01 05:42:41;;;;;;;20.53;10.40;;;13.20;99.90;;;;;;5034406;28;20328;-70
2022/01/01 05:45:08;;;;;;;17.60;8.70;;;13.20;99.90;;;;;;5032871;28;20165;-69
2022/01/01 05:47:33;;;;;;;12.77;7.50;;;13.20;99.90;;;;;;5033663;28;20215;-69
2022/01/01 05:49:59;;;;;;;11.17;6.63;;;13.20;99.90;;;;;;5033979;28;20166;-70
2022/01/01 05:52:25;;;;;;;9.83;6.50;;;13.30;99.90;;;;;;5034194;28;20692;-69
2022/01/01 05:54:50;;;;;;;13.93;6.87;;;13.30;99.90;;;;;;5033623;28;20522;-70
2022/01/01 05:57:16;;;;;;;12.30;6.53;;;13.20;99.90;;;;;;5032957;28;20176;-70
2022/01/01 05:59:42;;;;;;;12.47;6.90;;;13.20;99.90;;;;;;5033530;28;20521;-71
2022/01/01 06:02:09;;;;;;;12.17;7.20;;;13.20;99.90;;;;;;5033988;28;20268;-71
2022/01/01 06:04:35;;;;;;;9.73;6.53;;;13.20;99.90;;;;;;5033380;28;20204;-70
2022/01/01 06:07:00;;;;;;;10.53;6.57;;;13.10;99.90;;;;;;5032707;28;20606;-70
2022/01/01 06:09:26;;;;;;;23.20;6.90;;;13.10;99.90;;;;;;5033630;28;20212;-70
2022/01/01 06:11:51;;;;;;;13.07;7.27;;;13.10;99.90;;;;;;5033651;28;20173;-70
2022/01/01 06:14:17;;;;;;;8.97;7.13;;;13.10;99.90;;;;;;5033583;28;20170;-70
2022/01/01 06:16:43;;;;;;;10.47;6.83;;;13.10;99.90;;;;;;5033101;28;20691;-71
2022/01/01 06:19:08;;;;;;;11.77;7.57;;;13.10;99.90;;;;;;5033362;28;20669;-71
2022/01/01 06:21:34;;;;;;;13.03;7.47;;;13.00;99.90;;;;;;5033459;28;20201;-71
2022/01/01 06:23:59;;;;;;;12.30;7.63;;;12.90;99.90;;;;;;5033356;28;20288;-70
2022/01/01 06:26:25;;;;;;;13.57;7.93;;;12.90;99.90;;;;;;5033408;28;20553;-69
2022/01/01 06:28:51;;;;;;;13.20;7.93;;;12.80;99.90;;;;;;5033329;28;20335;-70
2022/01/01 06:31:16;;;;;;;15.67;8.23;;;12.70;99.90;;;;;;5033288;28;20525;-71
2022/01/01 06:33:42;;;;;;;15.97;7.50;;;12.70;99.90;;;;;;5033058;28;20170;-70
2022/01/01 06:36:12;;;;;;;14.23;7.93;;;12.70;99.90;;;;;;5033294;28;20174;-71
2022/01/01 06:38:39;;;;;;;13.67;7.97;;;12.60;99.90;;;;;;5032969;28;20162;-70
2022/01/01 06:41:04;;;;;;;15.53;8.20;;;12.50;99.90;;;;;;5032702;28;20249;-70
2022/01/01 06:43:30;;;;;;;14.77;7.97;;;12.50;99.90;;;;;;5033196;28;20654;-70
2022/01/01 06:45:55;;;;;;;14.87;8.57;;;12.50;99.90;;;;;;5033419;28;20173;-70
2022/01/01 06:48:21;;;;;;;15.73;8.73;;;12.50;99.90;;;;;;5032438;28;20670;-69
2022/01/01 06:50:47;;;;;;;14.30;8.80;;;12.50;99.90;;;;;;5031764;28;20642;-70
2022/01/01 06:53:12;;;;;;;12.60;8.60;;;12.50;99.90;;;;;;5033117;28;20634;-71
2022/01/01 06:55:39;;;;;;;19.87;8.80;;;12.40;99.90;;;;;;5033039;28;20189;-71
2022/01/01 06:58:04;;;;;;;17.40;8.30;;;12.40;99.90;;;;;;5032624;28;20539;-70
2022/01/01 07:00:30;;;;;;;13.47;9.27;;;12.30;99.90;;;;;;5032710;28;20173;-69
2022/01/01 07:02:56;;;;;;;17.10;8.90;;;12.20;99.90;;;;;;5032841;28;20185;-70
2022/01/01 07:05:22;;;;;;;18.37;9.33;;;12.20;99.90;;;;;;5031353;28;20177;-70
2022/01/01 07:07:47;;;;;;;20.67;12.50;;;12.10;99.90;;;;;;5032739;28;20220;-70
2022/01/01 07:10:13;;;;;;;17.80;10.73;;;12.10;99.90;;;;;;5032795;28;20217;-69
2022/01/01 07:12:39;;;;;;;18.30;9.50;;;12.10;99.90;;;;;;5032686;28;20653;-70
2022/01/01 07:15:07;;;;;;;14.77;9.03;;;12.00;99.90;;;;;;5032631;28;20177;-71
2022/01/01 07:17:33;;;;;;;17.10;10.77;;;12.00;99.90;;;;;;5032516;28;20182;-70
2022/01/01 07:19:58;;;;;;;14.63;10.20;;;12.00;99.90;;;;;;5033122;28;20185;-70
2022/01/01 07:22:24;;;;;;;18.13;9.90;;;12.00;99.90;;;;;;5032639;28;20185;-70
2022/01/01 07:24:50;;;;;;;19.50;10.57;;;12.00;99.90;;;;;;5032426;28;20624;-70
2022/01/01 07:27:17;;;;;;;14.70;10.43;;;11.90;99.90;;;;;;5032496;28;20210;-70
2022/01/01 07:29:42;;;;;;;15.33;10.10;;;11.90;99.90;;;;;;5031776;28;20196;-69
2022/01/01 07:32:08;;;;;;;17.03;10.87;;;12.00;99.90;;;;;;5030692;28;20686;-69
2022/01/01 07:34:34;;;;;;;16.50;10.20;;;11.90;99.90;;;;;;5032951;28;20273;-70
2022/01/01 07:37:00;;;;;;;13.87;9.93;;;11.90;99.90;;;;;;5032652;28;20174;-70
2022/01/01 07:39:26;;;;;;;17.90;11.13;;;11.90;99.90;;;;;;5032410;28;20178;-70
2022/01/01 07:41:51;;;;;;;18.77;10.80;;;11.90;99.90;;;;;;5032569;28;20185;-70
2022/01/01 07:44:17;;;;;;;15.90;10.13;;;11.90;99.90;;;;;;5034280;28;20181;-70
2022/01/01 07:46:42;;;;;;;19.63;11.47;;;11.80;99.90;;;;;;5035902;28;20228;-70
2022/01/01 07:49:08;;;;;;;17.37;11.30;;;11.90;99.90;;;;;;5035893;28;20186;-70
2022/01/01 07:51:33;;;;;;;17.03;11.00;;;11.90;99.90;;;;;;5035893;28;20193;-69
2022/01/01 07:53:59;;;;;;;22.00;11.20;;;11.90;99.90;;;;;;5036365;28;20178;-69
2022/01/01 07:56:25;;;;;;;17.93;11.30;;;11.90;99.90;;;;;;5036312;28;20202;-70
2022/01/01 07:58:50;;;;;;;18.50;11.13;;;11.90;99.90;;;;;;5035555;28;20196;-70
2022/01/01 08:01:16;;;;;;;16.33;11.47;;;11.80;99.90;;;;;;5035605;28;20177;-70
2022/01/01 08:03:42;;;;;;;21.80;11.50;;;11.80;99.90;;;;;;5035921;28;20937;-71
2022/01/01 08:06:08;;;;;;;16.37;11.67;;;11.90;99.90;;;;;;5035966;28;20170;-70
2022/01/01 08:08:33;;;;;;;21.27;11.77;;;11.90;99.90;;;;;;5035771;28;20664;-70
2022/01/01 08:10:59;;;;;;;18.53;11.47;;;11.80;99.90;;;;;;5036002;28;20177;-70
2022/01/01 08:13:25;;;;;;;15.20;10.50;;;11.80;99.90;;;;;;5035683;28;20660;-71
2022/01/01 08:15:55;;;;;;;19.13;11.13;;;11.80;99.90;;;;;;5035499;28;20256;-70
2022/01/01 08:18:20;;;;;;;13.60;11.03;;;11.80;99.90;;;;;;5035698;28;20170;-69
2022/01/01 08:20:47;;;;;;;15.17;11.63;;;11.90;99.90;;;;;;5035864;28;20236;-70
2022/01/01 08:23:13;;;;;;;14.10;11.37;;;11.90;99.90;;;;;;5035438;28;20184;-70
2022/01/01 08:25:39;;;;;;;16.03;11.43;;;11.90;99.90;;;;;;5035764;28;20211;-70
2022/01/01 08:28:06;;;;;;;14.67;11.60;;;11.90;99.90;;;;;;5035417;28;20260;-70
2022/01/01 08:30:33;;;;;;;15.87;11.00;;;11.90;99.90;;;;;;5035523;28;20618;-70
2022/01/01 08:33:02;;;;;;;14.83;11.20;;;12.00;99.90;;;;;;5035606;28;20174;-70
2022/01/01 08:35:30;;;;;;;18.13;12.33;;;12.10;99.90;;;;;;5035737;28;20205;-70
2022/01/01 08:37:56;;;;;;;15.90;11.13;;;12.10;99.90;;;;;;5035672;28;20210;-71
2022/01/01 08:40:23;;;;;;;15.93;10.77;;;12.10;99.90;;;;;;5035298;28;20166;-70
2022/01/01 08:42:48;;;;;;;14.80;11.43;;;12.20;99.90;;;;;;5035280;28;20269;-69
2022/01/01 08:45:14;;;;;;;15.70;11.10;;;12.10;99.90;;;;;;5034752;28;20245;-70
2022/01/01 08:47:40;;;;;;;16.17;11.03;;;12.20;99.90;;;;;;5034933;28;20301;-70
2022/01/01 08:50:06;;;;;;;15.10;11.10;;;12.10;99.90;;;;;;5034902;28;20177;-70
2022/01/01 08:52:32;;;;;;;14.60;10.60;;;12.20;99.90;;;;;;5035144;28;20231;-70
2022/01/01 08:54:59;;;;;;;15.70;11.33;;;12.20;99.90;;;;;;5035114;28;20189;-71
2022/01/01 08:57:26;;;;;;;13.87;10.60;;;12.20;99.90;;;;;;5034617;28;20170;-70
2022/01/01 08:59:52;;;;;;;15.50;11.10;;;12.30;99.90;;;;;;5034700;28;20259;-70
2022/01/01 09:02:18;;;;;;;14.30;10.93;;;12.50;99.90;;;;;;5035018;28;20170;-71
2022/01/01 09:04:45;;;;;;;13.30;10.47;;;12.50;99.90;;;;;;5033690;28;20227;-71
2022/01/01 09:07:12;;;;;;;14.47;10.90;;;12.70;99.90;;;;;;5035185;28;20213;-70
2022/01/01 09:09:38;;;;;;;15.07;11.30;;;12.70;99.90;;;;;;5034792;28;20182;-71
2022/01/01 09:12:04;;;;;;;14.23;11.10;;;12.70;99.90;;;;;;5034432;28;20184;-69
2022/01/01 09:14:29;;;;;;;12.77;10.20;;;12.70;99.90;;;;;;5034148;28;20178;-70
2022/01/01 09:16:55;;;;;;;12.97;10.37;;;12.70;99.90;;;;;;5034531;28;20228;-71
2022/01/01 09:19:21;;;;;;;11.53;10.20;;;12.60;99.90;;;;;;5033312;28;20597;-69
2022/01/01 09:21:46;;;;;;;17.20;10.60;;;12.60;99.90;;;;;;5034471;28;20551;-70
2022/01/01 09:24:12;;;;;;;14.53;10.50;;;12.60;99.90;;;;;;5034216;28;20284;-71
2022/01/01 09:26:37;;;;;;;13.13;11.07;;;12.70;99.90;;;;;;5034192;28;20181;-71
2022/01/01 09:29:04;;;;;;;12.73;10.40;;;12.90;99.90;;;;;;5034264;28;20245;-71
2022/01/01 09:31:30;;;;;;;14.50;11.20;;;13.10;99.90;;;;;;5034572;28;20284;-70
2022/01/01 09:33:56;;;;;;;13.30;11.37;;;13.20;99.90;;;;;;5034508;28;20634;-71
2022/01/01 09:36:22;;;;;;;13.93;11.53;;;13.40;99.90;;;;;;5034470;28;20245;-71
2022/01/01 09:38:49;;;;;;;13.87;10.83;;;13.40;99.90;;;;;;5034365;28;20684;-70
2022/01/01 09:41:15;;;;;;;12.83;11.53;;;13.50;99.90;;;;;;5033830;28;20602;-70
2022/01/01 09:43:42;;;;;;;14.97;11.37;;;13.60;99.90;;;;;;5034202;28;20626;-70
2022/01/01 09:46:11;;;;;;;12.90;10.73;;;13.60;99.90;;;;;;5034128;28;20170;-70
2022/01/01 09:48:38;;;;;;;12.33;11.10;;;13.70;99.90;;;;;;5033646;28;20202;-71
2022/01/01 09:51:03;;;;;;;13.57;10.93;;;13.50;99.90;;;;;;5033920;28;20637;-71
2022/01/01 09:53:30;;;;;;;15.67;11.07;;;13.40;99.90;;;;;;5034018;28;20185;-71
2022/01/01 09:55:58;;;;;;;13.43;11.00;;;13.50;99.90;;;;;;5033564;28;20697;-71
2022/01/01 09:58:32;;;;;;;13.83;10.57;;;13.70;99.90;;;;;;5033444;28;20174;-71
2022/01/01 10:00:59;;;;;;;10.70;9.60;;;14.10;99.90;;;;;;5034088;28;20167;-71
2022/01/01 10:03:51;;;;;;;9.67;8.67;;;14.60;99.90;;;;;;5033723;28;20265;-71
2022/01/01 10:06:19;;;;;;;14.03;9.80;;;15.00;99.90;;;;;;5033719;28;20200;-71
2022/01/01 10:08:48;;;;;;;8.83;8.00;;;15.20;99.90;;;;;;5033517;28;20206;-71
2022/01/01 10:11:18;;;;;;;8.63;7.73;;;15.40;99.90;;;;;;5033305;28;20170;-72
2022/01/01 10:13:44;;;;;;;9.27;7.50;;;15.70;99.90;;;;;;5033895;28;20170;-71
2022/01/01 10:16:11;;;;;;;9.13;7.00;;;16.00;99.90;;;;;;5033633;28;20170;-71
2022/01/01 10:18:41;;;;;;;8.02;6.68;;;16.40;99.90;;;;;;5033526;28;20181;-71
2022/01/01 10:21:22;;;;;;;7.32;6.05;;;16.50;99.90;;;;;;5033831;28;20177;-71
2022/01/01 10:23:52;;;;;;;6.68;5.97;;;16.50;99.90;;;;;;5033258;28;20256;-72
2022/01/01 10:29:24;;;;;;;6.35;5.63;;;16.90;99.90;;;;;;5033469;28;20208;-71
2022/01/01 10:32:04;;;;;;;7.25;5.78;;;17.00;99.90;;;;;;5031951;28;20174;-72
2022/01/01 10:34:35;;;;;;;5.05;4.65;;;17.20;99.90;;;;;;5033492;28;20185;-71
2022/01/01 10:37:02;;;;;;;5.32;4.55;;;17.10;99.90;;;;;;5033005;28;20195;-72
2022/01/01 10:39:28;;;;;;;5.15;4.57;;;17.30;99.90;;;;;;5032440;28;20173;-72
2022/01/01 10:42:04;;;;;;;5.20;4.70;;;17.60;99.90;;;;;;5033559;28;20174;-71
2022/01/01 10:44:39;;;;;;;8.20;4.65;;;17.80;99.90;;;;;;5033091;28;20169;-71
2022/01/01 10:47:33;;;;;;;5.38;4.88;;;18.10;99.90;;;;;;5032982;28;20205;-73
2022/01/01 10:52:37;;;;;;;5.05;4.28;;;19.00;99.90;;;;;;5032772;28;20571;-72
2022/01/01 10:55:03;;;;;;;4.93;4.25;;;19.10;99.90;;;;;;5032596;28;20194;-72
2022/01/01 10:57:41;;;;;;;5.03;4.03;;;19.20;99.90;;;;;;5031677;28;20613;-72
2022/01/01 11:00:12;;;;;;;4.47;4.05;;;19.00;99.90;;;;;;5032729;28;20174;-74
2022/01/01 11:02:41;;;;;;;4.47;4.15;;;19.10;99.90;;;;;;5032529;28;20169;-73
2022/01/01 11:05:07;;;;;;;4.03;3.63;;;19.10;99.90;;;;;;5032699;28;20166;-73
2022/01/01 11:07:34;;;;;;;3.92;3.58;;;19.00;99.90;;;;;;5032040;28;20688;-71
2022/01/01 11:10:00;;;;;;;4.57;3.80;;;18.90;99.90;;;;;;5032467;28;20227;-71
2022/01/01 11:12:29;;;;;;;3.83;3.47;;;19.10;99.90;;;;;;5032736;28;20207;-73
2022/01/01 11:14:57;;;;;;;3.90;3.60;;;19.70;99.90;;;;;;5032863;28;20364;-72
2022/01/01 11:17:24;;;;;;;3.42;3.13;;;19.20;99.90;;;;;;5032649;28;20239;-73
2022/01/01 11:19:49;;;;;;;4.00;3.53;;;19.20;99.90;;;;;;5035150;28;20169;-74
2022/01/01 11:22:18;;;;;;;4.72;3.38;;;18.70;99.90;;;;;;5036585;28;20178;-74
2022/01/01 11:24:44;;;;;;;3.25;2.95;;;18.50;99.90;;;;;;5036074;28;20236;-73
2022/01/01 11:27:09;;;;;;;4.68;4.28;;;18.60;99.90;;;;;;5036647;28;20202;-73
2022/01/01 11:29:36;;;;;;;5.88;4.68;;;18.00;99.90;;;;;;5036733;28;20173;-72
2022/01/01 11:32:06;;;;;;;3.67;3.38;;;18.20;99.90;;;;;;5036587;28;20174;-73
2022/01/01 11:34:36;;;;;;;4.03;3.70;;;18.00;99.90;;;;;;5036565;28;20177;-73
2022/01/01 11:37:03;;;;;;;3.50;3.20;;;17.70;99.90;;;;;;5036704;28;20170;-74
2022/01/01 11:39:28;;;;;;;3.30;3.00;;;17.80;99.90;;;;;;5036059;28;20185;-72
2022/01/01 11:42:14;;;;;;;4.07;3.67;;;17.90;99.90;;;;;;5036952;28;20166;-72
2022/01/01 11:44:42;;;;;;;3.55;3.10;;;18.50;99.90;;;;;;5036725;28;20173;-72
2022/01/01 11:47:20;;;;;;;3.63;2.88;;;18.80;99.90;;;;;;5035003;28;20194;-73
2022/01/01 11:49:46;;;;;;;3.08;2.88;;;19.10;99.90;;;;;;5035358;28;20178;-73
2022/01/01 11:52:14;;;;;;;3.85;2.70;;;19.40;99.90;;;;;;5035762;28;20578;-73
2022/01/01 11:54:42;;;;;;;2.45;2.25;;;19.70;99.90;;;;;;5036271;28;20194;-72
2022/01/01 11:57:19;;;;;;;2.88;2.67;;;19.40;99.90;;;;;;5035527;28;20177;-72
2022/01/01 11:59:46;;;;;;;3.05;2.72;;;19.10;99.90;;;;;;5035811;28;20162;-72
2022/01/01 12:02:23;;;;;;;3.35;2.60;;;18.90;99.90;;;;;;5036261;28;20193;-73
2022/01/01 12:04:55;;;;;;;2.60;2.40;;;19.30;99.90;;;;;;5036062;28;20641;-74
2022/01/01 12:07:20;;;;;;;2.53;2.33;;;18.90;99.90;;;;;;5035515;28;20201;-74
2022/01/01 12:09:55;;;;;;;2.67;2.50;;;18.80;99.90;;;;;;5035712;28;20695;-72
2022/01/01 12:12:48;;;;;;;3.80;2.65;;;18.70;99.90;;;;;;5036262;28;20251;-72
2022/01/01 12:15:38;;;;;;;3.40;2.65;;;18.30;99.90;;;;;;5036256;28;20186;-73
2022/01/01 12:18:19;;;;;;;3.00;2.30;;;18.30;99.90;;;;;;5035510;28;20181;-73
2022/01/01 12:20:50;;;;;;;3.20;2.70;;;18.10;99.90;;;;;;5035102;28;20173;-72
2022/01/01 12:23:18;;;;;;;3.00;2.70;;;18.20;99.90;;;;;;5035503;28;20243;-72
2022/01/01 12:25:45;;;;;;;3.30;2.90;;;18.70;99.90;;;;;;5035787;28;20280;-72
2022/01/01 12:28:32;;;;;;;2.60;2.40;;;18.80;99.90;;;;;;5035245;28;20753;-72
2022/01/01 12:31:14;;;;;;;3.78;3.08;;;18.80;99.90;;;;;;5035336;28;20174;-73
2022/01/01 12:33:47;;;;;;;6.10;4.00;;;18.50;99.90;;;;;;5035572;28;20224;-72
2022/01/01 12:36:15;;;;;;;5.20;3.08;;;18.50;99.90;;;;;;5035611;28;20395;-70
2022/01/01 12:38:49;;;;;;;2.70;2.50;;;18.20;99.90;;;;;;5034769;28;20177;-71
2022/01/01 12:41:14;;;;;;;2.78;2.58;;;18.00;99.90;;;;;;5035315;28;20660;-72